sensor_id;sensor_type;location;lat;lon;timestamp;pressure;altitude;pressure_sealevel;temperature;humidity
6532;BME280;3299;42.004;24.868;2022-12-07T00:00:26;98374.03;;;6.51;100.00
6532;BME280;3299;42.004;24.868;2022-12-07T00:02:51;98384.44;;;6.65;100.00
6532;BME280;3299;42.004;24.868;2022-12-07T00:05:17;98370.94;;;6.61;100.00
6532;BME280;3299;42.004;24.868;2022-12-07T00:07:42;98288.81;;;6.12;100.00
6532;BME280;3299;42.004;24.868;2022-12-07T00:10:07;98326.13;;;6.34;100.00
6532;BME280;3299;42.004;24.868;2022-12-07T00:12:33;98354.31;;;6.51;100.00
6532;BME280;3299;42.004;24.868;2022-12-07T00:14:58;98392.47;;;6.43;100.00
6532;BME280;3299;42.004;24.868;2022-12-07T00:17:24;98382.75;;;6.48;100.00
6532;BME280;3299;42.004;24.868;2022-12-07T00:19:49;98363.16;;;6.30;100.00
6532;BME280;3299;42.004;24.868;2022-12-07T00:22:17;98377.09;;;6.26;100.00
6532;BME280;3299;42.004;24.868;2022-12-07T00:24:43;98369.69;;;6.20;100.00
6532;BME280;3299;42.004;24.868;2022-12-07T00:27:08;98333.56;;;5.91;100.00
6532;BME280;3299;42.004;24.868;2022-12-07T00:29:33;98328.16;;;5.80;100.00
6532;BME280;3299;42.004;24.868;2022-12-07T00:31:59;98292.13;;;5.64;100.00
6532;BME280;3299;42.004;24.868;2022-12-07T00:34:24;98357.19;;;5.97;100.00
6532;BME280;3299;42.004;24.868;2022-12-07T00:36:50;98314.47;;;5.79;100.00
6532;BME280;3299;42.004;24.868;2022-12-07T00:39:16;98392.47;;;6.11;100.00
6532;BME280;3299;42.004;24.868;2022-12-07T00:41:42;98364.28;;;6.09;100.00
6532;BME280;3299;42.004;24.868;2022-12-07T00:44:07;98282.09;;;5.60;100.00
6532;BME280;3299;42.004;24.868;2022-12-07T00:46:33;98381.38;;;6.26;100.00
6532;BME280;3299;42.004;24.868;2022-12-07T00:48:58;98374.06;;;6.18;100.00
6532;BME280;3299;42.004;24.868;2022-12-07T00:51:24;98331.53;;;5.97;100.00
6532;BME280;3299;42.004;24.868;2022-12-07T00:53:50;98352.19;;;6.11;100.00
6532;BME280;3299;42.004;24.868;2022-12-07T00:56:23;98388.97;;;6.44;100.00
6532;BME280;3299;42.004;24.868;2022-12-07T00:59:04;98386.13;;;6.33;100.00
6532;BME280;3299;42.004;24.868;2022-12-07T01:01:32;98369.53;;;6.23;100.00
6532;BME280;3299;42.004;24.868;2022-12-07T01:03:58;98282.03;;;5.61;100.00
6532;BME280;3299;42.004;24.868;2022-12-07T01:06:26;98303.81;;;5.87;100.00
6532;BME280;3299;42.004;24.868;2022-12-07T01:08:52;98374.34;;;6.29;100.00
6532;BME280;3299;42.004;24.868;2022-12-07T01:11:20;98378.19;;;6.38;100.00
6532;BME280;3299;42.004;24.868;2022-12-07T01:13:46;98335.53;;;6.18;100.00
6532;BME280;3299;42.004;24.868;2022-12-07T01:16:13;98325.44;;;6.15;100.00
6532;BME280;3299;42.004;24.868;2022-12-07T01:18:39;98378.84;;;6.41;100.00
6532;BME280;3299;42.004;24.868;2022-12-07T01:21:17;98338.78;;;6.22;100.00
6532;BME280;3299;42.004;24.868;2022-12-07T01:23:43;98326.19;;;6.17;100.00
6532;BME280;3299;42.004;24.868;2022-12-07T01:26:14;98292.16;;;5.97;100.00
6532;BME280;3299;42.004;24.868;2022-12-07T01:28:41;98279.91;;;5.86;100.00
6532;BME280;3299;42.004;24.868;2022-12-07T01:31:13;98365.56;;;6.18;100.00
6532;BME280;3299;42.004;24.868;2022-12-07T01:33:41;98263.00;;;5.48;100.00
6532;BME280;3299;42.004;24.868;2022-12-07T01:38:34;98352.06;;;5.97;100.00
6532;BME280;3299;42.004;24.868;2022-12-07T01:41:00;98322.78;;;5.67;100.00
6532;BME280;3299;42.004;24.868;2022-12-07T01:43:28;98284.38;;;5.49;100.00
6532;BME280;3299;42.004;24.868;2022-12-07T01:45:55;98344.16;;;5.85;100.00
6532;BME280;3299;42.004;24.868;2022-12-07T01:48:41;98332.97;;;5.86;100.00
6532;BME280;3299;42.004;24.868;2022-12-07T01:51:11;98338.34;;;5.81;100.00
6532;BME280;3299;42.004;24.868;2022-12-07T01:53:41;98336.69;;;5.80;100.00
6532;BME280;3299;42.004;24.868;2022-12-07T01:56:11;98283.22;;;5.54;100.00
6532;BME280;3299;42.004;24.868;2022-12-07T01:58:38;98318.22;;;5.89;100.00
6532;BME280;3299;42.004;24.868;2022-12-07T02:01:04;98224.47;;;5.33;100.00
6532;BME280;3299;42.004;24.868;2022-12-07T02:03:34;98312.47;;;6.01;100.00
6532;BME280;3299;42.004;24.868;2022-12-07T02:06:02;98248.19;;;5.70;100.00
6532;BME280;3299;42.004;24.868;2022-12-07T02:08:31;98263.50;;;5.72;100.00
6532;BME280;3299;42.004;24.868;2022-12-07T02:10:56;98266.00;;;5.73;100.00
6532;BME280;3299;42.004;24.868;2022-12-07T02:13:25;98316.56;;;5.88;100.00
6532;BME280;3299;42.004;24.868;2022-12-07T02:22:05;98277.75;;;5.11;100.00
6532;BME280;3299;42.004;24.868;2022-12-07T02:30:12;98234.75;;;4.82;100.00
6532;BME280;3299;42.004;24.868;2022-12-07T02:32:48;98314.88;;;5.38;100.00
6532;BME280;3299;42.004;24.868;2022-12-07T02:35:23;98263.75;;;5.18;100.00
6532;BME280;3299;42.004;24.868;2022-12-07T02:43:03;98261.44;;;5.29;100.00
6532;BME280;3299;42.004;24.868;2022-12-07T02:45:31;98297.72;;;5.55;100.00
6532;BME280;3299;42.004;24.868;2022-12-07T02:47:59;98254.22;;;5.37;100.00
6532;BME280;3299;42.004;24.868;2022-12-07T02:50:26;98299.53;;;5.70;100.00
6532;BME280;3299;42.004;24.868;2022-12-07T02:52:52;98233.09;;;5.32;100.00
6532;BME280;3299;42.004;24.868;2022-12-07T02:55:19;98243.09;;;5.36;100.00
6532;BME280;3299;42.004;24.868;2022-12-07T03:00:23;98282.72;;;5.65;100.00
6532;BME280;3299;42.004;24.868;2022-12-07T03:03:00;98266.19;;;5.53;100.00
6532;BME280;3299;42.004;24.868;2022-12-07T03:11:23;98284.28;;;5.67;100.00
6532;BME280;3299;42.004;24.868;2022-12-07T03:14:03;98280.94;;;5.65;100.00
6532;BME280;3299;42.004;24.868;2022-12-07T03:16:39;98173.03;;;5.03;100.00
6532;BME280;3299;42.004;24.868;2022-12-07T03:19:10;98250.34;;;5.45;100.00
6532;BME280;3299;42.004;24.868;2022-12-07T03:21:40;98273.56;;;5.59;100.00
6532;BME280;3299;42.004;24.868;2022-12-07T03:24:18;98206.25;;;5.22;100.00
6532;BME280;3299;42.004;24.868;2022-12-07T03:26:48;98216.78;;;5.33;100.00
6532;BME280;3299;42.004;24.868;2022-12-07T03:29:36;98189.56;;;5.13;100.00
6532;BME280;3299;42.004;24.868;2022-12-07T03:32:24;98275.50;;;5.71;100.00
6532;BME280;3299;42.004;24.868;2022-12-07T03:37:50;98195.94;;;5.06;100.00
6532;BME280;3299;42.004;24.868;2022-12-07T03:43:16;98304.06;;;5.65;100.00
6532;BME280;3299;42.004;24.868;2022-12-07T03:46:11;98255.94;;;5.36;100.00
6532;BME280;3299;42.004;24.868;2022-12-07T03:48:46;98289.53;;;5.32;100.00
6532;BME280;3299;42.004;24.868;2022-12-07T03:51:24;98295.94;;;5.23;100.00
6532;BME280;3299;42.004;24.868;2022-12-07T03:53:58;98294.13;;;5.25;100.00
6532;BME280;3299;42.004;24.868;2022-12-07T03:56:26;98204.53;;;4.71;100.00
6532;BME280;3299;42.004;24.868;2022-12-07T03:58:54;98236.94;;;5.06;100.00
6532;BME280;3299;42.004;24.868;2022-12-07T04:01:19;98293.19;;;5.43;100.00
6532;BME280;3299;42.004;24.868;2022-12-07T04:03:45;98193.84;;;4.80;100.00
6532;BME280;3299;42.004;24.868;2022-12-07T04:06:11;98189.53;;;4.81;100.00
6532;BME280;3299;42.004;24.868;2022-12-07T04:08:36;98281.75;;;5.33;100.00
6532;BME280;3299;42.004;24.868;2022-12-07T04:11:01;98283.84;;;5.42;100.00
6532;BME280;3299;42.004;24.868;2022-12-07T04:13:27;98286.28;;;5.45;100.00
6532;BME280;3299;42.004;24.868;2022-12-07T04:15:52;98278.56;;;5.62;100.00
6532;BME280;3299;42.004;24.868;2022-12-07T04:18:18;98274.41;;;5.60;100.00
6532;BME280;3299;42.004;24.868;2022-12-07T04:20:43;98229.00;;;5.45;100.00
6532;BME280;3299;42.004;24.868;2022-12-07T04:23:08;98271.47;;;5.67;100.00
6532;BME280;3299;42.004;24.868;2022-12-07T04:25:34;98269.63;;;5.69;100.00
6532;BME280;3299;42.004;24.868;2022-12-07T04:27:59;98268.47;;;5.75;100.00
6532;BME280;3299;42.004;24.868;2022-12-07T04:30:25;98225.47;;;5.30;100.00
6532;BME280;3299;42.004;24.868;2022-12-07T04:32:50;98178.97;;;5.04;100.00
6532;BME280;3299;42.004;24.868;2022-12-07T04:35:16;98178.28;;;4.83;100.00
6532;BME280;3299;42.004;24.868;2022-12-07T04:37:41;98250.97;;;5.16;100.00
6532;BME280;3299;42.004;24.868;2022-12-07T04:40:10;98174.63;;;4.72;100.00
6532;BME280;3299;42.004;24.868;2022-12-07T04:42:36;98276.00;;;5.45;100.00
6532;BME280;3299;42.004;24.868;2022-12-07T04:45:02;98206.72;;;5.13;100.00
6532;BME280;3299;42.004;24.868;2022-12-07T04:47:28;98182.66;;;4.98;100.00
6532;BME280;3299;42.004;24.868;2022-12-07T04:49:53;98156.75;;;4.87;100.00
6532;BME280;3299;42.004;24.868;2022-12-07T04:52:18;98206.03;;;5.09;100.00
6532;BME280;3299;42.004;24.868;2022-12-07T04:54:44;98182.81;;;4.95;100.00
6532;BME280;3299;42.004;24.868;2022-12-07T04:57:09;98241.88;;;5.43;100.00
6532;BME280;3299;42.004;24.868;2022-12-07T04:59:35;98146.72;;;4.83;100.00
6532;BME280;3299;42.004;24.868;2022-12-07T05:02:00;98251.13;;;5.30;100.00
6532;BME280;3299;42.004;24.868;2022-12-07T05:04:25;98224.88;;;5.25;100.00
6532;BME280;3299;42.004;24.868;2022-12-07T05:06:51;98172.47;;;5.14;100.00
6532;BME280;3299;42.004;24.868;2022-12-07T05:09:16;98254.34;;;5.51;100.00
6532;BME280;3299;42.004;24.868;2022-12-07T05:11:42;98159.00;;;4.93;100.00
6532;BME280;3299;42.004;24.868;2022-12-07T05:14:16;98250.97;;;5.33;100.00
6532;BME280;3299;42.004;24.868;2022-12-07T05:16:44;98167.72;;;4.72;100.00
6532;BME280;3299;42.004;24.868;2022-12-07T05:19:10;98267.84;;;5.37;100.00
6532;BME280;3299;42.004;24.868;2022-12-07T05:21:37;98228.34;;;5.07;100.00
6532;BME280;3299;42.004;24.868;2022-12-07T05:24:03;98260.34;;;5.17;100.00
6532;BME280;3299;42.004;24.868;2022-12-07T05:26:29;98225.72;;;4.92;100.00
6532;BME280;3299;42.004;24.868;2022-12-07T05:28:55;98221.41;;;4.75;100.00
6532;BME280;3299;42.004;24.868;2022-12-07T05:31:22;98179.03;;;4.51;100.00
6532;BME280;3299;42.004;24.868;2022-12-07T05:33:48;98173.16;;;4.49;100.00
6532;BME280;3299;42.004;24.868;2022-12-07T05:36:13;98271.25;;;5.04;100.00
6532;BME280;3299;42.004;24.868;2022-12-07T05:38:39;98236.50;;;4.81;100.00
6532;BME280;3299;42.004;24.868;2022-12-07T05:41:06;98178.13;;;4.52;100.00
6532;BME280;3299;42.004;24.868;2022-12-07T05:43:34;98256.78;;;5.03;100.00
6532;BME280;3299;42.004;24.868;2022-12-07T05:45:59;98278.97;;;5.21;100.00
6532;BME280;3299;42.004;24.868;2022-12-07T05:48:25;98206.09;;;4.74;100.00
6532;BME280;3299;42.004;24.868;2022-12-07T05:50:51;98246.75;;;5.15;100.00
6532;BME280;3299;42.004;24.868;2022-12-07T05:53:17;98204.66;;;4.85;100.00
6532;BME280;3299;42.004;24.868;2022-12-07T05:55:43;98264.41;;;5.21;100.00
6532;BME280;3299;42.004;24.868;2022-12-07T05:58:08;98191.19;;;4.82;100.00
6532;BME280;3299;42.004;24.868;2022-12-07T06:00:54;98266.81;;;5.24;100.00
6532;BME280;3299;42.004;24.868;2022-12-07T06:03:20;98193.75;;;4.99;100.00
6532;BME280;3299;42.004;24.868;2022-12-07T06:05:45;98180.78;;;4.85;100.00
6532;BME280;3299;42.004;24.868;2022-12-07T06:08:10;98241.03;;;5.27;100.00
6532;BME280;3299;42.004;24.868;2022-12-07T06:10:36;98261.84;;;5.38;100.00
6532;BME280;3299;42.004;24.868;2022-12-07T06:13:01;98237.56;;;5.28;100.00
6532;BME280;3299;42.004;24.868;2022-12-07T06:15:27;98247.56;;;5.33;100.00
6532;BME280;3299;42.004;24.868;2022-12-07T06:17:52;98269.13;;;5.46;100.00
6532;BME280;3299;42.004;24.868;2022-12-07T06:20:17;98244.34;;;5.29;100.00
6532;BME280;3299;42.004;24.868;2022-12-07T06:22:43;98268.16;;;5.31;100.00
6532;BME280;3299;42.004;24.868;2022-12-07T06:25:08;98285.06;;;5.35;100.00
6532;BME280;3299;42.004;24.868;2022-12-07T06:27:35;98297.44;;;5.44;100.00
6532;BME280;3299;42.004;24.868;2022-12-07T06:30:00;98251.91;;;5.15;100.00
6532;BME280;3299;42.004;24.868;2022-12-07T06:32:31;98298.88;;;5.50;100.00
6532;BME280;3299;42.004;24.868;2022-12-07T06:34:57;98285.78;;;5.54;100.00
6532;BME280;3299;42.004;24.868;2022-12-07T06:37:22;98285.44;;;5.45;100.00
6532;BME280;3299;42.004;24.868;2022-12-07T06:39:47;98245.97;;;5.30;100.00
6532;BME280;3299;42.004;24.868;2022-12-07T06:42:13;98195.06;;;5.23;100.00
6532;BME280;3299;42.004;24.868;2022-12-07T06:44:38;98301.91;;;5.90;100.00
6532;BME280;3299;42.004;24.868;2022-12-07T06:47:04;98200.13;;;5.24;100.00
6532;BME280;3299;42.004;24.868;2022-12-07T06:49:29;98209.56;;;5.24;100.00
6532;BME280;3299;42.004;24.868;2022-12-07T06:51:55;98200.06;;;5.26;100.00
6532;BME280;3299;42.004;24.868;2022-12-07T06:54:20;98276.81;;;5.80;100.00
6532;BME280;3299;42.004;24.868;2022-12-07T06:56:45;98302.84;;;6.05;100.00
6532;BME280;3299;42.004;24.868;2022-12-07T06:59:11;98293.28;;;6.08;100.00
6532;BME280;3299;42.004;24.868;2022-12-07T07:01:36;98250.88;;;5.84;100.00
6532;BME280;3299;42.004;24.868;2022-12-07T07:04:02;98302.91;;;6.20;100.00
6532;BME280;3299;42.004;24.868;2022-12-07T07:06:28;98298.19;;;6.28;100.00
6532;BME280;3299;42.004;24.868;2022-12-07T07:08:53;98304.66;;;6.35;100.00
6532;BME280;3299;42.004;24.868;2022-12-07T07:11:19;98256.69;;;6.20;100.00
6532;BME280;3299;42.004;24.868;2022-12-07T07:13:45;98259.66;;;6.28;100.00
6532;BME280;3299;42.004;24.868;2022-12-07T07:16:10;98288.25;;;6.53;100.00
6532;BME280;3299;42.004;24.868;2022-12-07T07:18:36;98253.34;;;6.49;100.00
6532;BME280;3299;42.004;24.868;2022-12-07T07:21:01;98232.28;;;6.43;100.00
6532;BME280;3299;42.004;24.868;2022-12-07T07:23:27;98254.00;;;6.68;100.00
6532;BME280;3299;42.004;24.868;2022-12-07T07:25:52;98210.22;;;6.54;100.00
6532;BME280;3299;42.004;24.868;2022-12-07T07:28:18;98308.66;;;7.17;100.00
6532;BME280;3299;42.004;24.868;2022-12-07T07:30:43;98303.91;;;7.25;100.00
6532;BME280;3299;42.004;24.868;2022-12-07T07:33:12;98312.50;;;7.39;100.00
6532;BME280;3299;42.004;24.868;2022-12-07T07:35:38;98217.63;;;6.90;100.00
6532;BME280;3299;42.004;24.868;2022-12-07T07:38:04;98258.31;;;7.27;100.00
6532;BME280;3299;42.004;24.868;2022-12-07T07:40:30;98219.06;;;7.09;100.00
6532;BME280;3299;42.004;24.868;2022-12-07T07:42:56;98279.72;;;7.57;100.00
6532;BME280;3299;42.004;24.868;2022-12-07T07:45:23;98316.47;;;7.88;100.00
6532;BME280;3299;42.004;24.868;2022-12-07T07:47:49;98252.06;;;7.60;100.00
6532;BME280;3299;42.004;24.868;2022-12-07T07:50:16;98302.53;;;7.91;100.00
6532;BME280;3299;42.004;24.868;2022-12-07T07:52:41;98287.75;;;7.94;100.00
6532;BME280;3299;42.004;24.868;2022-12-07T07:55:07;98296.38;;;7.93;100.00
6532;BME280;3299;42.004;24.868;2022-12-07T07:57:34;98268.06;;;7.79;100.00
6532;BME280;3299;42.004;24.868;2022-12-07T08:00:00;98309.63;;;8.15;100.00
6532;BME280;3299;42.004;24.868;2022-12-07T08:02:25;98308.72;;;8.16;100.00
6532;BME280;3299;42.004;24.868;2022-12-07T08:04:50;98319.88;;;8.31;100.00
6532;BME280;3299;42.004;24.868;2022-12-07T08:07:19;98311.38;;;8.43;100.00
6532;BME280;3299;42.004;24.868;2022-12-07T08:09:45;98302.19;;;8.53;100.00
6532;BME280;3299;42.004;24.868;2022-12-07T08:12:10;98252.59;;;8.35;100.00
6532;BME280;3299;42.004;24.868;2022-12-07T08:14:35;98265.06;;;8.55;100.00
6532;BME280;3299;42.004;24.868;2022-12-07T08:17:01;98309.00;;;8.94;100.00
6532;BME280;3299;42.004;24.868;2022-12-07T08:19:26;98266.84;;;8.81;100.00
6532;BME280;3299;42.004;24.868;2022-12-07T08:21:52;98304.63;;;9.21;100.00
6532;BME280;3299;42.004;24.868;2022-12-07T08:24:18;98272.94;;;9.19;100.00
6532;BME280;3299;42.004;24.868;2022-12-07T08:26:43;98284.72;;;9.36;100.00
6532;BME280;3299;42.004;24.868;2022-12-07T08:29:09;98306.25;;;9.61;100.00
6532;BME280;3299;42.004;24.868;2022-12-07T08:31:34;98263.91;;;9.51;100.00
6532;BME280;3299;42.004;24.868;2022-12-07T08:34:00;98225.25;;;9.37;100.00
6532;BME280;3299;42.004;24.868;2022-12-07T08:36:26;98303.06;;;9.95;100.00
6532;BME280;3299;42.004;24.868;2022-12-07T08:38:51;98309.84;;;10.10;100.00
6532;BME280;3299;42.004;24.868;2022-12-07T08:41:17;98269.06;;;9.88;100.00
6532;BME280;3299;42.004;24.868;2022-12-07T08:43:43;98223.41;;;9.64;100.00
6532;BME280;3299;42.004;24.868;2022-12-07T08:48:42;98279.38;;;10.01;100.00
6532;BME280;3299;42.004;24.868;2022-12-07T08:51:09;98323.06;;;10.18;100.00
6532;BME280;3299;42.004;24.868;2022-12-07T08:53:35;98314.06;;;10.11;100.00
6532;BME280;3299;42.004;24.868;2022-12-07T08:56:02;98250.88;;;9.65;100.00
6532;BME280;3299;42.004;24.868;2022-12-07T08:58:28;98240.03;;;9.60;100.00
6532;BME280;3299;42.004;24.868;2022-12-07T09:00:54;98292.13;;;9.91;100.00
6532;BME280;3299;42.004;24.868;2022-12-07T09:03:19;98294.19;;;9.99;100.00
6532;BME280;3299;42.004;24.868;2022-12-07T09:05:45;98298.31;;;10.01;100.00
6532;BME280;3299;42.004;24.868;2022-12-07T09:08:10;98289.34;;;10.07;100.00
6532;BME280;3299;42.004;24.868;2022-12-07T09:10:36;98285.41;;;10.14;100.00
6532;BME280;3299;42.004;24.868;2022-12-07T09:13:01;98194.34;;;9.73;100.00
6532;BME280;3299;42.004;24.868;2022-12-07T09:15:30;98218.81;;;9.92;100.00
6532;BME280;3299;42.004;24.868;2022-12-07T09:17:56;98191.34;;;9.79;100.00
6532;BME280;3299;42.004;24.868;2022-12-07T09:20:22;98199.41;;;9.87;100.00
6532;BME280;3299;42.004;24.868;2022-12-07T09:22:48;98255.69;;;10.32;100.00
6532;BME280;3299;42.004;24.868;2022-12-07T09:25:13;98187.28;;;10.00;100.00
6532;BME280;3299;42.004;24.868;2022-12-07T09:27:39;98261.25;;;10.51;100.00
6532;BME280;3299;42.004;24.868;2022-12-07T09:30:05;98259.97;;;10.56;100.00
6532;BME280;3299;42.004;24.868;2022-12-07T09:32:31;98244.88;;;10.50;100.00
6532;BME280;3299;42.004;24.868;2022-12-07T09:34:56;98236.50;;;10.47;100.00
6532;BME280;3299;42.004;24.868;2022-12-07T09:37:22;98200.66;;;10.30;100.00
6532;BME280;3299;42.004;24.868;2022-12-07T09:39:47;98236.69;;;10.56;100.00
6532;BME280;3299;42.004;24.868;2022-12-07T09:42:33;98195.78;;;10.38;100.00
6532;BME280;3299;42.004;24.868;2022-12-07T09:44:59;98237.84;;;10.76;100.00
6532;BME280;3299;42.004;24.868;2022-12-07T09:47:26;98196.34;;;10.54;100.00
6532;BME280;3299;42.004;24.868;2022-12-07T09:49:55;98206.03;;;10.63;100.00
6532;BME280;3299;42.004;24.868;2022-12-07T09:52:28;98226.00;;;10.84;100.00
6532;BME280;3299;42.004;24.868;2022-12-07T09:54:54;98183.94;;;10.46;100.00
6532;BME280;3299;42.004;24.868;2022-12-07T09:57:27;98226.00;;;10.84;100.00
6532;BME280;3299;42.004;24.868;2022-12-07T09:59:56;98187.69;;;10.66;100.00
6532;BME280;3299;42.004;24.868;2022-12-07T10:04:57;98143.78;;;10.53;100.00
6532;BME280;3299;42.004;24.868;2022-12-07T10:07:23;98191.56;;;10.95;100.00
6532;BME280;3299;42.004;24.868;2022-12-07T10:09:49;98204.56;;;11.06;100.00
6532;BME280;3299;42.004;24.868;2022-12-07T10:12:14;98202.28;;;10.90;100.00
6532;BME280;3299;42.004;24.868;2022-12-07T10:14:56;98157.38;;;10.68;100.00
6532;BME280;3299;42.004;24.868;2022-12-07T10:17:34;98165.03;;;10.80;100.00
6532;BME280;3299;42.004;24.868;2022-12-07T10:20:15;98157.44;;;10.90;100.00
6532;BME280;3299;42.004;24.868;2022-12-07T10:23:14;98200.59;;;11.24;100.00
6532;BME280;3299;42.004;24.868;2022-12-07T10:25:40;98152.19;;;11.02;100.00
6532;BME280;3299;42.004;24.868;2022-12-07T10:30:49;98144.31;;;11.04;100.00
6532;BME280;3299;42.004;24.868;2022-12-07T10:33:54;98198.41;;;11.41;100.00
6532;BME280;3299;42.004;24.868;2022-12-07T10:38:53;98200.63;;;11.35;100.00
6532;BME280;3299;42.004;24.868;2022-12-07T10:41:23;98195.31;;;11.25;100.00
6532;BME280;3299;42.004;24.868;2022-12-07T10:43:52;98198.75;;;11.26;100.00
6532;BME280;3299;42.004;24.868;2022-12-07T10:46:25;98187.44;;;11.27;100.00
6532;BME280;3299;42.004;24.868;2022-12-07T10:51:49;98141.50;;;11.18;100.00
6532;BME280;3299;42.004;24.868;2022-12-07T11:05:47;98189.44;;;11.45;100.00
6532;BME280;3299;42.004;24.868;2022-12-07T11:08:56;98147.03;;;11.13;100.00
6532;BME280;3299;42.004;24.868;2022-12-07T11:11:26;98162.69;;;11.23;100.00
6532;BME280;3299;42.004;24.868;2022-12-07T11:16:58;98176.13;;;11.28;100.00
6532;BME280;3299;42.004;24.868;2022-12-07T11:19:46;98175.88;;;11.31;100.00
6532;BME280;3299;42.004;24.868;2022-12-07T11:30:20;98158.00;;;11.28;100.00
6532;BME280;3299;42.004;24.868;2022-12-07T11:33:33;98061.41;;;10.71;100.00
6532;BME280;3299;42.004;24.868;2022-12-07T11:39:01;98143.84;;;11.10;100.00
6532;BME280;3299;42.004;24.868;2022-12-07T11:41:33;98061.38;;;10.60;100.00
6532;BME280;3299;42.004;24.868;2022-12-07T11:44:17;98150.22;;;11.17;100.00
6532;BME280;3299;42.004;24.868;2022-12-07T11:46:53;98129.44;;;10.95;100.00
6532;BME280;3299;42.004;24.868;2022-12-07T11:52:02;98096.22;;;10.78;100.00
6532;BME280;3299;42.004;24.868;2022-12-07T11:54:32;98124.56;;;11.14;100.00
6532;BME280;3299;42.004;24.868;2022-12-07T11:57:04;98121.16;;;11.24;100.00
6532;BME280;3299;42.004;24.868;2022-12-07T11:59:39;98123.38;;;11.29;100.00
6532;BME280;3299;42.004;24.868;2022-12-07T12:02:27;98074.16;;;11.07;100.00
6532;BME280;3299;42.004;24.868;2022-12-07T12:05:21;98109.16;;;11.23;100.00
6532;BME280;3299;42.004;24.868;2022-12-07T12:07:51;98087.84;;;11.20;100.00
6532;BME280;3299;42.004;24.868;2022-12-07T12:13:58;98044.72;;;10.75;100.00
6532;BME280;3299;42.004;24.868;2022-12-07T12:19:42;98100.06;;;11.18;100.00
6532;BME280;3299;42.004;24.868;2022-12-07T12:22:20;98093.03;;;11.20;100.00
6532;BME280;3299;42.004;24.868;2022-12-07T12:24:51;98094.88;;;11.18;100.00
6532;BME280;3299;42.004;24.868;2022-12-07T12:27:26;98054.84;;;11.00;100.00
6532;BME280;3299;42.004;24.868;2022-12-07T12:29:59;98094.19;;;11.16;100.00
6532;BME280;3299;42.004;24.868;2022-12-07T12:32:54;98095.34;;;11.12;100.00
6532;BME280;3299;42.004;24.868;2022-12-07T12:35:36;98045.22;;;10.91;100.00
6532;BME280;3299;42.004;24.868;2022-12-07T12:38:31;98092.06;;;11.21;100.00
6532;BME280;3299;42.004;24.868;2022-12-07T12:40:58;98091.13;;;11.22;100.00
6532;BME280;3299;42.004;24.868;2022-12-07T12:43:50;98090.78;;;11.26;100.00
6532;BME280;3299;42.004;24.868;2022-12-07T12:49:14;98039.56;;;10.97;100.00
6532;BME280;3299;42.004;24.868;2022-12-07T12:51:41;98036.72;;;10.89;100.00
6532;BME280;3299;42.004;24.868;2022-12-07T12:54:22;98032.75;;;10.85;100.00
6532;BME280;3299;42.004;24.868;2022-12-07T12:56:59;97999.53;;;10.57;100.00
6532;BME280;3299;42.004;24.868;2022-12-07T12:59:33;98085.25;;;11.09;100.00
6532;BME280;3299;42.004;24.868;2022-12-07T13:02:23;98077.47;;;10.98;100.00
6532;BME280;3299;42.004;24.868;2022-12-07T13:20:57;98077.13;;;11.13;100.00
6532;BME280;3299;42.004;24.868;2022-12-07T13:28:32;98031.66;;;10.65;100.00
6532;BME280;3299;42.004;24.868;2022-12-07T13:31:09;98071.09;;;10.91;100.00
6532;BME280;3299;42.004;24.868;2022-12-07T13:33:36;98051.66;;;10.85;100.00
6532;BME280;3299;42.004;24.868;2022-12-07T13:36:02;98014.22;;;10.56;100.00
6532;BME280;3299;42.004;24.868;2022-12-07T13:38:31;98022.06;;;10.55;100.00
6532;BME280;3299;42.004;24.868;2022-12-07T13:41:04;98070.13;;;10.81;100.00
6532;BME280;3299;42.004;24.868;2022-12-07T13:43:30;98024.91;;;10.52;100.00
6532;BME280;3299;42.004;24.868;2022-12-07T13:45:57;98069.09;;;10.83;100.00
6532;BME280;3299;42.004;24.868;2022-12-07T13:48:33;98068.63;;;10.89;100.00
6532;BME280;3299;42.004;24.868;2022-12-07T13:51:02;98023.28;;;10.62;100.00
6532;BME280;3299;42.004;24.868;2022-12-07T13:53:29;98048.47;;;10.71;100.00
6532;BME280;3299;42.004;24.868;2022-12-07T13:55:57;98023.47;;;10.48;100.00
6532;BME280;3299;42.004;24.868;2022-12-07T13:58:24;98020.06;;;10.36;100.00
6532;BME280;3299;42.004;24.868;2022-12-07T14:00:50;98059.69;;;10.48;100.00
6532;BME280;3299;42.004;24.868;2022-12-07T14:05:42;98024.94;;;10.28;100.00
6532;BME280;3299;42.004;24.868;2022-12-07T14:10:39;98071.22;;;10.44;100.00
6532;BME280;3299;42.004;24.868;2022-12-07T14:15:50;98069.69;;;10.41;100.00
6532;BME280;3299;42.004;24.868;2022-12-07T14:18:45;98074.06;;;10.52;100.00
6532;BME280;3299;42.004;24.868;2022-12-07T14:21:20;98077.34;;;10.54;100.00
6532;BME280;3299;42.004;24.868;2022-12-07T14:24:15;98042.94;;;10.30;100.00
6532;BME280;3299;42.004;24.868;2022-12-07T14:26:42;98043.88;;;10.29;100.00
6532;BME280;3299;42.004;24.868;2022-12-07T14:31:54;98041.28;;;10.29;100.00
6532;BME280;3299;42.004;24.868;2022-12-07T14:34:21;98040.53;;;10.16;100.00
6532;BME280;3299;42.004;24.868;2022-12-07T14:36:46;98032.66;;;9.94;100.00
6532;BME280;3299;42.004;24.868;2022-12-07T14:39:12;98066.50;;;10.02;100.00
6532;BME280;3299;42.004;24.868;2022-12-07T14:41:37;98017.81;;;9.62;100.00
6532;BME280;3299;42.004;24.868;2022-12-07T14:44:23;98048.19;;;9.58;100.00
6532;BME280;3299;42.004;24.868;2022-12-07T14:46:51;98028.75;;;9.29;100.00
6532;BME280;3299;42.004;24.868;2022-12-07T14:49:17;98067.84;;;9.48;100.00
6532;BME280;3299;42.004;24.868;2022-12-07T14:51:44;98006.88;;;9.10;100.00
6532;BME280;3299;42.004;24.868;2022-12-07T14:54:18;98059.81;;;9.40;100.00
6532;BME280;3299;42.004;24.868;2022-12-07T14:56:45;98008.81;;;9.19;100.00
6532;BME280;3299;42.004;24.868;2022-12-07T14:59:11;98064.53;;;9.46;100.00
6532;BME280;3299;42.004;24.868;2022-12-07T15:01:39;98057.31;;;9.26;100.00
6532;BME280;3299;42.004;24.868;2022-12-07T15:04:04;98036.91;;;8.98;100.00
6532;BME280;3299;42.004;24.868;2022-12-07T15:06:30;98019.59;;;8.88;100.00
6532;BME280;3299;42.004;24.868;2022-12-07T15:08:55;98054.16;;;8.98;100.00
6532;BME280;3299;42.004;24.868;2022-12-07T15:11:21;98065.28;;;8.98;100.00
6532;BME280;3299;42.004;24.868;2022-12-07T15:13:47;98046.84;;;8.79;100.00